createdAt,value
2022-09-03T00:04:09.533Z,0
2022-09-03T00:09:09.372Z,0
2022-09-03T00:14:09.850Z,0
2022-09-03T00:19:11.609Z,0
2022-09-03T00:24:14.428Z,0
2022-09-03T00:29:09.458Z,0
2022-09-03T00:34:09.874Z,0
2022-09-03T00:39:09.385Z,0
2022-09-03T00:44:10.406Z,0
2022-09-03T00:49:09.652Z,0
2022-09-03T00:54:09.371Z,0
2022-09-03T00:59:09.420Z,0
2022-09-03T01:04:09.409Z,0
2022-09-03T01:09:09.343Z,0
2022-09-03T01:14:09.730Z,0
2022-09-03T01:19:09.388Z,0
2022-09-03T01:24:09.437Z,0
2022-09-03T01:29:09.408Z,0
2022-09-03T01:34:09.417Z,0
2022-09-03T01:39:09.402Z,0
2022-09-03T01:44:09.378Z,0
2022-09-03T01:49:09.388Z,0
2022-09-03T01:54:18.184Z,0
2022-09-03T01:59:09.370Z,0
2022-09-03T02:04:09.380Z,0
2022-09-03T02:09:09.371Z,0
2022-09-03T02:14:09.412Z,0
2022-09-03T02:19:09.407Z,0
2022-09-03T02:24:09.385Z,0
2022-09-03T02:29:09.389Z,0
2022-09-03T02:34:09.451Z,0
2022-09-03T02:39:09.376Z,0
2022-09-03T02:44:09.389Z,0
2022-09-03T02:49:09.377Z,0
2022-09-03T02:54:09.427Z,0
2022-09-03T02:59:09.425Z,0
2022-09-03T03:04:09.655Z,0
2022-09-03T03:09:09.439Z,0
2022-09-03T03:14:09.424Z,0
2022-09-03T03:19:09.416Z,0
2022-09-03T03:24:09.431Z,0
2022-09-03T03:29:10.992Z,0
2022-09-03T03:34:10.426Z,0
2022-09-03T03:39:12.411Z,0
2022-09-03T03:44:09.404Z,0
2022-09-03T03:49:09.413Z,0
2022-09-03T03:54:09.417Z,0
2022-09-03T03:59:09.681Z,0
2022-09-03T04:04:09.442Z,0
2022-09-03T04:09:10.425Z,0
2022-09-03T04:14:09.475Z,0
2022-09-03T04:19:10.480Z,0
2022-09-03T04:24:09.471Z,0
2022-09-03T04:29:09.437Z,0
2022-09-03T04:34:09.474Z,0
2022-09-03T04:39:09.715Z,0
2022-09-03T04:44:09.943Z,265
2022-09-03T04:49:09.498Z,0
2022-09-03T04:54:09.478Z,266
2022-09-03T04:59:09.454Z,267
2022-09-03T05:04:10.665Z,269
2022-09-03T05:09:09.456Z,268
2022-09-03T05:14:09.509Z,269
2022-09-03T05:19:09.449Z,270
2022-09-03T05:24:09.480Z,275
2022-09-03T05:29:09.462Z,274
2022-09-03T05:34:09.552Z,276
2022-09-03T05:39:09.476Z,278
2022-09-03T05:44:09.431Z,281
2022-09-03T05:49:09.436Z,289
2022-09-03T05:54:09.586Z,296
2022-09-03T05:59:09.499Z,302
2022-09-03T06:04:09.958Z,298
2022-09-03T06:09:09.523Z,293
2022-09-03T06:14:09.544Z,290
2022-09-03T06:19:09.474Z,285
2022-09-03T06:24:09.555Z,288
2022-09-03T06:29:10.610Z,292
2022-09-03T06:34:09.555Z,296
2022-09-03T06:39:09.490Z,297
2022-09-03T06:44:09.464Z,295
2022-09-03T06:49:09.577Z,306
2022-09-03T06:54:09.512Z,328
2022-09-03T06:59:10.487Z,316
2022-09-03T07:04:10.002Z,299
2022-09-03T07:09:09.606Z,309
2022-09-03T07:14:09.516Z,340
2022-09-03T07:19:10.464Z,358
2022-09-03T07:24:09.520Z,344
2022-09-03T07:29:09.504Z,369
2022-09-03T07:34:10.569Z,395
2022-09-03T07:39:09.524Z,346
2022-09-03T07:44:09.464Z,343
2022-09-03T07:49:10.526Z,332
2022-09-03T07:54:09.488Z,328
2022-09-03T07:59:09.514Z,350
2022-09-03T08:04:10.604Z,362
2022-09-03T08:09:09.488Z,349
2022-09-03T08:14:09.509Z,435
2022-09-03T08:19:09.632Z,379
2022-09-03T08:24:09.518Z,417
2022-09-03T08:29:09.537Z,642
2022-09-03T08:34:09.524Z,420
2022-09-03T08:39:10.321Z,408
2022-09-03T08:44:09.556Z,616
2022-09-03T08:49:10.487Z,545
2022-09-03T08:54:09.534Z,569
2022-09-03T08:59:09.492Z,689
2022-09-03T09:04:09.535Z,832
2022-09-03T09:09:09.565Z,1081
2022-09-03T09:14:09.561Z,554
2022-09-03T09:19:09.614Z,455
2022-09-03T09:24:09.523Z,395
2022-09-03T09:29:10.521Z,364
2022-09-03T09:34:09.518Z,753
2022-09-03T09:39:09.534Z,1237
2022-09-03T09:44:09.562Z,780
2022-09-03T09:49:10.827Z,827
2022-09-03T09:54:09.549Z,706
2022-09-03T09:59:09.540Z,615
2022-09-03T10:04:09.571Z,612
2022-09-03T10:09:09.542Z,1012
2022-09-03T10:14:09.565Z,1233
2022-09-03T10:19:09.527Z,1241
2022-09-03T10:24:09.573Z,877
2022-09-03T10:29:10.579Z,880
2022-09-03T10:34:09.570Z,1491
2022-09-03T10:39:11.193Z,1356
2022-09-03T10:44:09.554Z,535
2022-09-03T10:49:09.575Z,454
2022-09-03T10:54:09.599Z,898
2022-09-03T10:59:09.559Z,1082
2022-09-03T11:04:09.553Z,549
2022-09-03T11:09:09.561Z,467
2022-09-03T11:14:09.589Z,566
2022-09-03T11:19:11.227Z,483
2022-09-03T11:24:09.787Z,467
2022-09-03T11:29:09.626Z,420
2022-09-03T11:34:09.578Z,412
2022-09-03T11:39:09.637Z,388
2022-09-03T11:44:09.564Z,403
2022-09-03T11:49:09.792Z,405
2022-09-03T11:54:10.594Z,399
2022-09-03T11:59:10.606Z,411
2022-09-03T12:04:09.721Z,376
2022-09-03T12:09:14.009Z,361
2022-09-03T12:14:13.809Z,363
2022-09-03T12:19:12.682Z,382
2022-09-03T12:24:09.592Z,409
2022-09-03T12:29:12.601Z,352
2022-09-03T12:34:09.641Z,376
2022-09-03T12:39:13.242Z,348
2022-09-03T12:44:09.607Z,350
2022-09-03T12:49:31.370Z,354
2022-09-03T12:54:10.654Z,342
2022-09-03T12:59:09.607Z,316
2022-09-03T13:04:10.673Z,302
2022-09-03T13:09:09.593Z,288
2022-09-03T13:14:11.121Z,291
2022-09-03T13:19:09.626Z,291
2022-09-03T13:24:09.652Z,299
2022-09-03T13:29:09.644Z,304
2022-09-03T13:34:09.596Z,305
2022-09-03T13:39:09.596Z,292
2022-09-03T13:44:09.662Z,301
2022-09-03T13:49:09.860Z,311
2022-09-03T13:54:09.626Z,317
2022-09-03T13:59:09.599Z,324
2022-09-03T14:04:10.216Z,325
2022-09-03T14:09:09.684Z,324
2022-09-03T14:14:09.650Z,322
2022-09-03T14:19:09.932Z,317
2022-09-03T14:24:09.713Z,313
2022-09-03T14:29:09.653Z,289
2022-09-03T14:34:09.608Z,281
2022-09-03T14:39:09.629Z,278
2022-09-03T14:44:09.631Z,280
2022-09-03T14:49:09.661Z,290
2022-09-03T14:54:09.672Z,293
2022-09-03T14:59:09.629Z,287
2022-09-03T15:04:09.667Z,283
2022-09-03T15:09:09.676Z,284
2022-09-03T15:14:09.676Z,282
2022-09-03T15:19:09.695Z,283
2022-09-03T15:24:09.683Z,282
2022-09-03T15:29:09.629Z,277
2022-09-03T15:34:09.605Z,270
2022-09-03T15:39:09.651Z,267
2022-09-03T15:44:09.651Z,267
2022-09-03T15:49:09.764Z,269
2022-09-03T15:54:09.673Z,269
2022-09-03T15:59:09.620Z,265
2022-09-03T16:04:09.942Z,267
2022-09-03T16:09:09.694Z,269
2022-09-03T16:14:09.607Z,269
2022-09-03T16:19:09.681Z,269
2022-09-03T16:24:09.777Z,272
2022-09-03T16:29:09.665Z,272
2022-09-03T16:34:09.843Z,271
2022-09-03T16:39:09.714Z,270
2022-09-03T16:44:09.715Z,270
2022-09-03T16:49:09.851Z,268
2022-09-03T16:54:11.201Z,272
2022-09-03T16:59:09.721Z,270
2022-09-03T17:04:09.737Z,267
2022-09-03T17:09:09.940Z,268
2022-09-03T17:14:09.648Z,266
2022-09-03T17:19:09.712Z,267
2022-09-03T17:24:10.177Z,266
2022-09-03T17:29:09.697Z,0
2022-09-03T17:34:09.735Z,0
2022-09-03T17:39:09.696Z,0
2022-09-03T17:44:09.714Z,0
2022-09-03T17:49:09.692Z,0
2022-09-03T17:54:09.700Z,0
2022-09-03T17:59:09.713Z,0
2022-09-03T18:04:09.721Z,0
2022-09-03T18:09:09.708Z,0
2022-09-03T18:14:09.701Z,0
2022-09-03T18:19:09.736Z,0
2022-09-03T18:24:09.727Z,0
2022-09-03T18:29:09.738Z,0
2022-09-03T18:34:09.745Z,0
2022-09-03T18:39:09.767Z,0
2022-09-03T18:44:09.721Z,0
2022-09-03T18:49:09.755Z,0
2022-09-03T18:54:09.743Z,0
2022-09-03T18:59:10.235Z,0
2022-09-03T19:04:10.230Z,0
2022-09-03T19:09:12.737Z,0
2022-09-03T19:14:10.217Z,0
2022-09-03T19:19:13.937Z,0
2022-09-03T19:24:12.742Z,0
2022-09-03T19:29:09.861Z,0
2022-09-03T19:34:09.739Z,0
2022-09-03T19:39:09.725Z,0
2022-09-03T19:44:09.727Z,0
2022-09-03T19:49:09.848Z,0
2022-09-03T19:54:09.712Z,0
2022-09-03T19:59:09.741Z,0
2022-09-03T20:04:09.789Z,0
2022-09-03T20:09:09.781Z,0
2022-09-03T20:14:09.757Z,0
2022-09-03T20:19:09.763Z,0
2022-09-03T20:24:09.764Z,0
2022-09-03T20:29:09.764Z,0
2022-09-03T20:34:09.739Z,0
2022-09-03T20:39:09.783Z,0
2022-09-03T20:44:09.808Z,0
2022-09-03T20:49:09.784Z,0
2022-09-03T20:54:09.735Z,0
2022-09-03T20:59:09.751Z,0
2022-09-03T21:04:09.781Z,0
2022-09-03T21:09:10.829Z,0
2022-09-03T21:14:09.726Z,0
2022-09-03T21:19:09.796Z,0
2022-09-03T21:24:09.762Z,0
2022-09-03T21:29:09.803Z,0
2022-09-03T21:34:09.811Z,0
2022-09-03T21:39:10.272Z,0
2022-09-03T21:44:09.796Z,0
2022-09-03T21:49:09.805Z,0
2022-09-03T21:54:10.841Z,0
2022-09-03T21:59:10.782Z,0
2022-09-03T22:04:09.847Z,0
2022-09-03T22:09:09.782Z,0
2022-09-03T22:14:09.787Z,0
2022-09-03T22:19:09.872Z,0
2022-09-03T22:24:09.985Z,0
2022-09-03T22:29:09.777Z,0
2022-09-03T22:34:09.785Z,0
2022-09-03T22:39:09.872Z,0
2022-09-03T22:44:09.771Z,0
2022-09-03T22:49:09.795Z,0
2022-09-03T22:54:09.804Z,0
2022-09-03T22:59:09.801Z,0
2022-09-03T23:04:09.850Z,0
2022-09-03T23:09:09.778Z,0
2022-09-03T23:14:10.286Z,0
2022-09-03T23:19:09.894Z,0
2022-09-03T23:24:09.770Z,0
2022-09-03T23:29:09.815Z,0
2022-09-03T23:34:09.832Z,0
2022-09-03T23:39:09.796Z,0
2022-09-03T23:44:09.877Z,0
2022-09-03T23:49:09.807Z,0
2022-09-03T23:54:09.790Z,0
2022-09-03T23:59:09.822Z,0
